createdAt,value
2018-07-19T00:02:43.851Z,64.00
2018-07-19T00:05:11.639Z,65.70
2018-07-19T00:07:39.480Z,66.50
2018-07-19T00:10:07.247Z,65.80
2018-07-19T00:12:35.055Z,65.70
2018-07-19T00:15:02.876Z,65.90
2018-07-19T00:17:30.614Z,65.70
2018-07-19T00:19:58.346Z,65.40
2018-07-19T00:22:26.349Z,67.30
2018-07-19T00:24:54.095Z,66.50
2018-07-19T00:27:22.200Z,67.70
2018-07-19T00:29:49.931Z,68.10
2018-07-19T00:32:17.750Z,66.60
2018-07-19T00:37:13.399Z,67.90
2018-07-19T00:39:41.116Z,67.60
2018-07-19T00:42:09.550Z,67.70
2018-07-19T00:44:37.339Z,68.20
2018-07-19T00:47:05.666Z,66.50
2018-07-19T00:49:33.460Z,67.50
2018-07-19T00:52:01.570Z,69.60
2018-07-19T00:54:29.415Z,68.40
2018-07-19T00:56:57.246Z,67.30
2018-07-19T00:59:25.091Z,70.20
2018-07-19T01:01:52.951Z,69.10
2018-07-19T01:04:20.779Z,68.30
2018-07-19T01:06:48.563Z,68.30
2018-07-19T01:09:16.435Z,70.50
2018-07-19T01:11:44.164Z,71.10
2018-07-19T01:14:11.923Z,70.30
2018-07-19T01:16:39.796Z,69.20
2018-07-19T01:19:07.603Z,67.80
2018-07-19T01:21:35.468Z,69.40
2018-07-19T01:24:03.328Z,70.30
2018-07-19T01:26:31.159Z,72.20
2018-07-19T01:28:59.027Z,72.00
2018-07-19T01:31:26.974Z,72.70
2018-07-19T01:33:54.795Z,70.50
2018-07-19T01:36:22.557Z,72.20
2018-07-19T01:38:50.360Z,70.40
2018-07-19T01:43:34.192Z,72.50
2018-07-19T01:46:02.303Z,74.90
2018-07-19T01:48:30.160Z,73.10
2018-07-19T01:50:58.016Z,74.80
2018-07-19T01:53:25.812Z,73.00
2018-07-19T01:55:53.575Z,73.20
2018-07-19T01:58:21.317Z,72.00
2018-07-19T02:00:49.322Z,75.80
2018-07-19T02:03:17.157Z,76.70
2018-07-19T02:05:44.945Z,76.60
2018-07-19T02:08:12.799Z,77.60
2018-07-19T02:10:40.580Z,78.20
2018-07-19T02:13:08.399Z,78.20
2018-07-19T02:15:36.195Z,78.50
2018-07-19T02:18:04.104Z,77.30
2018-07-19T02:20:31.902Z,78.10
2018-07-19T02:22:59.783Z,77.80
2018-07-19T02:25:27.580Z,77.90
2018-07-19T02:27:55.364Z,78.20
2018-07-19T02:30:23.153Z,77.90
2018-07-19T02:32:50.967Z,78.60
2018-07-19T02:35:18.769Z,78.90
2018-07-19T02:37:46.503Z,80.70
2018-07-19T02:40:14.368Z,80.20
2018-07-19T02:42:42.252Z,80.10
2018-07-19T02:47:38.349Z,81.00
2018-07-19T02:50:06.703Z,80.60
2018-07-19T02:55:02.751Z,80.70
2018-07-19T02:57:30.618Z,80.80
2018-07-19T02:59:58.371Z,80.40
2018-07-19T03:02:27.100Z,80.60
2018-07-19T03:04:54.904Z,81.10
2018-07-19T03:07:22.720Z,81.10
2018-07-19T03:09:50.501Z,81.60
2018-07-19T03:12:18.267Z,82.10
2018-07-19T03:14:46.077Z,82.70
2018-07-19T03:17:13.864Z,82.90
2018-07-19T03:19:41.753Z,82.90
2018-07-19T03:22:09.594Z,81.40
2018-07-19T03:24:37.414Z,82.30
2018-07-19T03:27:05.324Z,82.60
2018-07-19T03:29:33.395Z,82.40
2018-07-19T03:32:01.160Z,82.70
2018-07-19T03:34:28.971Z,83.10
2018-07-19T03:36:57.021Z,83.30
2018-07-19T03:39:25.331Z,83.00
2018-07-19T03:41:53.134Z,82.10
2018-07-19T03:44:21.240Z,82.70
2018-07-19T03:46:49.018Z,82.70
2018-07-19T03:49:16.870Z,82.70
2018-07-19T03:51:44.807Z,82.30
2018-07-19T03:54:12.687Z,82.70
2018-07-19T03:56:40.443Z,82.70
2018-07-19T03:59:08.199Z,82.00
2018-07-19T04:01:35.946Z,81.50
2018-07-19T04:04:03.704Z,80.70
2018-07-19T04:06:31.511Z,80.80
2018-07-19T04:08:59.327Z,82.70
2018-07-19T04:11:27.144Z,81.10
2018-07-19T04:13:54.997Z,78.80
2018-07-19T04:16:22.790Z,80.60
2018-07-19T04:18:50.507Z,82.00
2018-07-19T04:23:46.095Z,81.20
2018-07-19T04:26:13.926Z,80.50
2018-07-19T04:28:41.692Z,79.20
2018-07-19T04:31:09.532Z,81.00
2018-07-19T04:33:37.406Z,81.70
2018-07-19T04:36:05.295Z,81.00
2018-07-19T04:38:33.121Z,81.10
2018-07-19T04:41:00.939Z,81.10
2018-07-19T04:43:28.728Z,80.90
2018-07-19T04:45:56.559Z,80.00
2018-07-19T04:48:24.401Z,80.60
2018-07-19T04:50:52.175Z,80.60
2018-07-19T04:53:19.971Z,80.10
2018-07-19T04:55:47.753Z,80.00
2018-07-19T04:58:15.552Z,80.20
2018-07-19T05:00:43.407Z,79.40
2018-07-19T05:03:11.237Z,78.80
2018-07-19T05:05:39.071Z,77.60
2018-07-19T05:08:06.815Z,78.40
2018-07-19T05:10:34.631Z,76.90
2018-07-19T05:13:02.415Z,76.20
2018-07-19T05:15:30.257Z,71.90
2018-07-19T05:17:58.092Z,68.10
2018-07-19T05:20:25.923Z,66.30
2018-07-19T05:22:53.698Z,64.50
2018-07-19T05:25:21.526Z,62.70
2018-07-19T05:27:49.335Z,61.40
2018-07-19T05:30:17.171Z,59.20
2018-07-19T05:32:45.020Z,57.50
2018-07-19T05:35:12.835Z,58.00
2018-07-19T05:37:40.572Z,56.50
2018-07-19T05:40:08.387Z,56.50
2018-07-19T05:42:36.312Z,55.20
2018-07-19T05:45:04.592Z,56.10
2018-07-19T05:50:00.020Z,56.90
2018-07-19T05:52:27.774Z,56.80
2018-07-19T05:54:55.517Z,56.70
2018-07-19T05:57:23.362Z,56.30
2018-07-19T05:59:51.133Z,56.10
2018-07-19T06:02:18.925Z,54.60
2018-07-19T06:04:46.653Z,53.90
2018-07-19T06:07:14.791Z,52.30
2018-07-19T06:09:43.679Z,51.40
2018-07-19T06:12:11.335Z,52.00
2018-07-19T06:14:39.179Z,52.70
2018-07-19T06:17:07.051Z,54.00
2018-07-19T06:19:34.862Z,52.50
2018-07-19T06:22:02.651Z,53.10
2018-07-19T06:27:00.178Z,53.50
2018-07-19T06:29:27.960Z,54.20
2018-07-19T06:31:55.853Z,54.00
2018-07-19T06:34:23.659Z,52.50
2018-07-19T06:36:51.506Z,52.30
2018-07-19T06:39:19.383Z,52.80
2018-07-19T06:41:47.169Z,52.50
2018-07-19T06:44:14.951Z,52.20
2018-07-19T06:46:42.795Z,53.20
2018-07-19T06:49:10.691Z,53.30
2018-07-19T06:51:38.517Z,53.10
2018-07-19T06:54:06.272Z,53.10
2018-07-19T06:56:34.159Z,51.20
2018-07-19T06:59:01.912Z,52.00
2018-07-19T07:01:29.727Z,52.60
2018-07-19T07:03:57.603Z,53.60
2018-07-19T07:06:25.434Z,52.30
2018-07-19T07:08:53.259Z,51.50
2018-07-19T07:11:21.071Z,50.10
2018-07-19T07:13:48.866Z,51.30
2018-07-19T07:16:16.686Z,51.80
2018-07-19T07:18:44.615Z,50.80
2018-07-19T07:21:12.476Z,51.20
2018-07-19T07:23:40.258Z,51.90
2018-07-19T07:26:08.101Z,51.30
2018-07-19T07:28:41.329Z,51.90
2018-07-19T07:31:09.936Z,51.80
2018-07-19T07:33:37.812Z,50.80
2018-07-19T07:38:33.803Z,51.30
2018-07-19T07:41:01.715Z,50.90
2018-07-19T07:43:29.575Z,50.30
2018-07-19T07:45:57.435Z,50.60
2018-07-19T07:48:28.908Z,50.80
2018-07-19T07:51:00.061Z,50.70
2018-07-19T07:53:28.551Z,50.00
2018-07-19T07:58:26.848Z,48.70
2018-07-19T08:03:33.468Z,48.10
2018-07-19T08:06:04.910Z,47.50
2018-07-19T08:08:34.175Z,47.00
2018-07-19T08:11:05.059Z,47.50
2018-07-19T08:13:39.418Z,46.90
2018-07-19T08:16:08.499Z,47.30
2018-07-19T08:18:36.635Z,47.20
2018-07-19T08:21:05.488Z,47.10
2018-07-19T08:23:37.190Z,46.80
2018-07-19T08:26:11.195Z,46.40
2018-07-19T08:28:39.012Z,46.70
2018-07-19T08:31:11.451Z,46.80
2018-07-19T08:33:40.010Z,46.80
2018-07-19T08:36:08.810Z,46.80
2018-07-19T08:38:36.551Z,46.10
2018-07-19T08:41:04.588Z,45.90
2018-07-19T08:43:32.450Z,47.10
2018-07-19T08:46:00.276Z,46.10
2018-07-19T08:48:28.607Z,45.80
2018-07-19T08:50:57.159Z,45.70
2018-07-19T08:53:25.020Z,46.20
2018-07-19T08:55:56.034Z,45.30
2018-07-19T08:58:24.271Z,45.30
2018-07-19T09:00:52.296Z,45.70
2018-07-19T09:03:20.723Z,44.80
2018-07-19T09:05:50.522Z,45.00
2018-07-19T09:08:18.427Z,44.80
2018-07-19T09:13:13.959Z,44.30
2018-07-19T09:15:41.851Z,44.40
2018-07-19T09:20:37.491Z,44.30
2018-07-19T09:25:33.311Z,44.60
2018-07-19T09:28:01.088Z,44.00
2018-07-19T09:30:28.919Z,43.90
2018-07-19T09:32:56.743Z,43.80
2018-07-19T09:35:24.564Z,44.50
2018-07-19T09:37:52.319Z,43.50
2018-07-19T09:40:20.155Z,42.70
2018-07-19T09:45:15.871Z,43.50
2018-07-19T09:47:43.715Z,43.00
2018-07-19T09:50:11.648Z,43.10
2018-07-19T09:52:39.436Z,42.80
2018-07-19T09:55:07.260Z,42.10
2018-07-19T09:57:35.140Z,41.10
2018-07-19T10:00:02.935Z,40.10
2018-07-19T10:02:30.716Z,39.90
2018-07-19T10:04:58.552Z,40.70
2018-07-19T10:07:26.311Z,40.10
2018-07-19T10:09:54.248Z,38.80
2018-07-19T10:12:22.031Z,36.60
2018-07-19T10:14:49.803Z,35.50
2018-07-19T10:17:17.725Z,35.00
2018-07-19T10:19:45.540Z,36.10
2018-07-19T10:22:13.338Z,36.10
2018-07-19T10:24:41.176Z,35.50
2018-07-19T10:27:08.935Z,36.10
2018-07-19T10:29:37.156Z,37.30
2018-07-19T10:32:04.985Z,35.50
2018-07-19T10:34:32.765Z,35.50
2018-07-19T10:37:00.831Z,37.00
2018-07-19T10:39:28.609Z,35.60
2018-07-19T10:41:56.458Z,35.20
2018-07-19T10:44:24.355Z,34.90
2018-07-19T10:49:19.939Z,31.60
2018-07-19T10:51:47.790Z,30.40
2018-07-19T10:54:15.508Z,29.10
2018-07-19T10:56:43.459Z,28.90
2018-07-19T10:59:11.357Z,29.30
2018-07-19T11:01:39.323Z,28.90
2018-07-19T11:04:08.555Z,28.20
2018-07-19T11:06:36.623Z,27.90
2018-07-19T11:09:10.394Z,27.50
2018-07-19T11:11:38.468Z,27.10
2018-07-19T11:14:06.392Z,27.30
2018-07-19T11:16:34.264Z,27.10
2018-07-19T11:19:01.971Z,25.80
2018-07-19T11:21:29.784Z,25.60
2018-07-19T11:23:57.648Z,25.50
2018-07-19T11:26:26.359Z,25.50
2018-07-19T11:28:54.315Z,24.90
2018-07-19T11:31:22.500Z,25.40
2018-07-19T11:33:50.472Z,26.90
2018-07-19T11:36:18.286Z,26.40
2018-07-19T11:38:50.732Z,25.40
2018-07-19T11:41:21.083Z,26.00
2018-07-19T11:43:49.215Z,25.40
2018-07-19T11:46:17.080Z,25.60
2018-07-19T11:48:44.880Z,25.80
2018-07-19T11:51:12.687Z,25.80
2018-07-19T11:53:40.506Z,24.90
2018-07-19T11:56:08.315Z,24.80
2018-07-19T11:58:36.239Z,24.60
2018-07-19T12:03:34.275Z,24.60
2018-07-19T12:06:02.232Z,24.30
2018-07-19T12:08:30.571Z,24.00
2018-07-19T12:10:58.879Z,23.70
2018-07-19T12:13:26.966Z,24.70
2018-07-19T12:15:54.911Z,25.00
2018-07-19T12:18:22.672Z,25.00
2018-07-19T12:20:52.355Z,23.40
2018-07-19T12:23:21.863Z,24.70
2018-07-19T12:25:50.055Z,23.60
2018-07-19T12:28:18.036Z,23.60
2018-07-19T12:30:46.515Z,24.70
2018-07-19T12:33:14.464Z,24.10
2018-07-19T12:35:42.467Z,23.50
2018-07-19T12:38:14.525Z,23.70
2018-07-19T12:40:42.672Z,24.20
2018-07-19T12:43:10.487Z,24.40
2018-07-19T12:45:38.259Z,23.90
2018-07-19T12:48:06.188Z,24.60
2018-07-19T12:50:34.064Z,24.00
2018-07-19T12:53:01.914Z,24.30
2018-07-19T12:55:29.719Z,24.90
2018-07-19T12:57:59.565Z,25.20
2018-07-19T13:00:27.620Z,24.70
2018-07-19T13:02:55.330Z,24.60
2018-07-19T13:08:04.707Z,24.10
2018-07-19T13:10:32.595Z,23.60
2018-07-19T13:13:00.852Z,23.70
2018-07-19T13:15:33.392Z,23.90
2018-07-19T13:18:08.719Z,24.30
2018-07-19T13:20:36.719Z,23.40
2018-07-19T13:23:04.642Z,23.20
2018-07-19T13:25:33.002Z,23.80
2018-07-19T13:28:01.490Z,24.00
2018-07-19T13:30:31.146Z,24.60
2018-07-19T13:32:59.436Z,24.90
2018-07-19T13:35:27.327Z,25.60
2018-07-19T13:37:55.131Z,25.00
2018-07-19T13:40:23.725Z,24.70
2018-07-19T13:42:52.715Z,25.40
2018-07-19T13:45:23.046Z,25.60
2018-07-19T13:50:18.871Z,25.40
2018-07-19T13:53:04.729Z,25.80
2018-07-19T13:55:33.360Z,26.10
2018-07-19T13:58:03.132Z,25.60
2018-07-19T14:00:31.095Z,25.80
2018-07-19T14:03:00.593Z,26.40
2018-07-19T14:07:57.394Z,26.90
2018-07-19T14:10:25.250Z,26.10
2018-07-19T14:12:53.164Z,26.20
2018-07-19T14:15:24.478Z,27.20
2018-07-19T14:17:52.324Z,26.90
2018-07-19T14:20:20.135Z,27.80
2018-07-19T14:22:47.959Z,28.20
2018-07-19T14:25:15.836Z,28.20
2018-07-19T14:27:43.623Z,28.70
2018-07-19T14:30:12.639Z,29.50
2018-07-19T14:32:40.503Z,29.30
2018-07-19T14:35:08.292Z,29.00
2018-07-19T14:37:36.028Z,29.00
2018-07-19T14:40:04.166Z,29.20
2018-07-19T14:42:32.037Z,29.80
2018-07-19T14:45:00.110Z,29.90
2018-07-19T14:47:29.319Z,29.00
2018-07-19T14:49:57.139Z,29.50
2018-07-19T14:52:24.964Z,29.60
2018-07-19T14:54:52.757Z,30.20
2018-07-19T14:57:20.527Z,28.90
2018-07-19T14:59:49.237Z,29.10
2018-07-19T15:02:17.047Z,29.50
2018-07-19T15:04:44.882Z,29.70
2018-07-19T15:09:40.548Z,28.30
2018-07-19T15:12:08.355Z,28.70
2018-07-19T15:14:36.170Z,28.40
2018-07-19T15:17:04.111Z,28.10
2018-07-19T15:19:31.868Z,29.40
2018-07-19T15:21:59.755Z,28.90
2018-07-19T15:24:27.583Z,29.60
2018-07-19T15:26:55.389Z,28.60
2018-07-19T15:29:23.179Z,29.00
2018-07-19T15:31:50.991Z,28.90
2018-07-19T15:34:19.906Z,29.30
2018-07-19T15:36:47.676Z,29.80
2018-07-19T15:39:15.517Z,29.50
2018-07-19T15:41:43.344Z,29.10
2018-07-19T15:44:11.092Z,29.30
2018-07-19T15:46:38.919Z,29.10
2018-07-19T15:49:06.802Z,28.80
2018-07-19T15:51:43.377Z,29.20
2018-07-19T15:54:20.388Z,28.80
2018-07-19T15:56:48.586Z,28.40
2018-07-19T15:59:17.386Z,28.80
2018-07-19T16:01:45.128Z,28.30
2018-07-19T16:04:13.648Z,28.10
2018-07-19T16:06:41.660Z,29.00
2018-07-19T16:09:12.136Z,29.10
2018-07-19T16:11:40.572Z,29.10
2018-07-19T16:14:08.414Z,29.60
2018-07-19T16:19:04.674Z,29.10
2018-07-19T16:21:32.504Z,28.60
2018-07-19T16:24:00.271Z,28.60
2018-07-19T16:26:28.255Z,28.50
2018-07-19T16:28:56.116Z,29.10
2018-07-19T16:31:23.920Z,28.40
2018-07-19T16:33:51.744Z,29.10
2018-07-19T16:36:19.567Z,29.00
2018-07-19T16:38:47.371Z,28.90
2018-07-19T16:41:15.247Z,30.00
2018-07-19T16:43:43.211Z,28.60
2018-07-19T16:46:11.043Z,29.00
2018-07-19T16:48:38.947Z,29.40
2018-07-19T16:51:06.904Z,29.20
2018-07-19T16:53:34.727Z,29.70
2018-07-19T16:56:02.631Z,30.00
2018-07-19T16:58:30.397Z,28.90
2018-07-19T17:00:58.859Z,29.60
2018-07-19T17:03:26.676Z,29.40
2018-07-19T17:05:54.479Z,29.60
2018-07-19T17:08:22.299Z,29.60
2018-07-19T17:10:50.159Z,30.00
2018-07-19T17:13:19.033Z,29.50
2018-07-19T17:15:46.875Z,29.60
2018-07-19T17:18:14.995Z,29.90
2018-07-19T17:20:42.740Z,29.80
2018-07-19T17:23:10.642Z,30.20
2018-07-19T17:25:38.427Z,30.60
2018-07-19T17:28:06.244Z,30.20
2018-07-19T17:30:34.244Z,30.30
2018-07-19T17:33:02.032Z,30.50
2018-07-19T17:35:29.851Z,30.90
2018-07-19T17:37:57.619Z,30.90
2018-07-19T17:40:25.404Z,30.70
2018-07-19T17:42:53.232Z,31.00
2018-07-19T17:45:21.011Z,31.30
2018-07-19T17:47:48.899Z,31.30
2018-07-19T17:50:16.648Z,31.30
2018-07-19T17:52:44.431Z,31.90
2018-07-19T17:55:12.778Z,32.10
2018-07-19T17:57:40.828Z,32.20
2018-07-19T18:00:08.771Z,32.30
2018-07-19T18:02:36.591Z,32.50
2018-07-19T18:05:04.673Z,32.90
2018-07-19T18:07:33.575Z,33.20
2018-07-19T18:10:01.392Z,32.80
2018-07-19T18:12:29.747Z,33.30
2018-07-19T18:14:57.486Z,33.60
2018-07-19T18:17:25.396Z,33.70
2018-07-19T18:19:53.550Z,34.10
2018-07-19T18:22:21.367Z,34.10
2018-07-19T18:24:49.195Z,34.80
2018-07-19T18:27:17.040Z,34.60
2018-07-19T18:29:45.013Z,34.90
2018-07-19T18:32:12.734Z,35.40
2018-07-19T18:34:40.512Z,35.80
2018-07-19T18:37:08.821Z,35.90
2018-07-19T18:39:36.568Z,36.90
2018-07-19T18:42:04.417Z,36.60
2018-07-19T18:44:32.231Z,36.80
2018-07-19T18:47:00.255Z,37.10
2018-07-19T18:49:28.056Z,37.30
2018-07-19T18:51:56.002Z,37.30
2018-07-19T18:54:23.832Z,37.60
2018-07-19T18:56:51.610Z,38.00
2018-07-19T18:59:19.404Z,38.30
2018-07-19T19:01:47.333Z,38.30
2018-07-19T19:04:15.262Z,38.30
2018-07-19T19:06:43.171Z,38.80
2018-07-19T19:09:11.520Z,39.00
2018-07-19T19:11:39.458Z,39.90
2018-07-19T19:14:07.288Z,39.20
2018-07-19T19:16:35.035Z,39.70
2018-07-19T19:19:02.909Z,40.20
2018-07-19T19:21:30.811Z,40.50
2018-07-19T19:23:58.920Z,41.20
2018-07-19T19:26:26.748Z,41.90
2018-07-19T19:28:54.575Z,42.20
2018-07-19T19:31:22.342Z,42.50
2018-07-19T19:33:50.227Z,42.70
2018-07-19T19:36:18.087Z,42.60
2018-07-19T19:38:45.893Z,43.10
2018-07-19T19:41:13.775Z,43.10
2018-07-19T19:43:41.627Z,43.30
2018-07-19T19:46:09.600Z,43.20
2018-07-19T19:56:03.513Z,44.10
2018-07-19T19:58:31.556Z,44.20
2018-07-19T20:00:59.612Z,44.90
2018-07-19T20:03:27.559Z,45.20
2018-07-19T20:05:55.595Z,45.80
2018-07-19T20:08:23.411Z,46.20
2018-07-19T20:10:51.246Z,46.60
2018-07-19T20:13:19.119Z,46.90
2018-07-19T20:15:47.052Z,47.20
2018-07-19T20:18:14.847Z,48.10
2018-07-19T20:20:42.723Z,48.10
2018-07-19T20:23:10.539Z,49.30
2018-07-19T20:28:06.095Z,47.60
2018-07-19T20:30:33.864Z,48.10
2018-07-19T20:33:01.644Z,49.20
2018-07-19T20:35:29.495Z,50.30
2018-07-19T20:37:57.327Z,48.50
2018-07-19T20:40:25.152Z,49.20
2018-07-19T20:42:53.003Z,51.00
2018-07-19T20:45:20.967Z,49.60
2018-07-19T20:47:48.772Z,47.60
2018-07-19T20:50:16.601Z,48.70
2018-07-19T20:52:44.341Z,50.10
2018-07-19T20:55:12.173Z,51.30
2018-07-19T20:57:39.995Z,51.60
2018-07-19T21:00:07.871Z,49.90
2018-07-19T21:02:35.716Z,54.40
2018-07-19T21:05:03.493Z,56.80
2018-07-19T21:07:31.251Z,57.00
2018-07-19T21:09:59.145Z,58.00
2018-07-19T21:12:26.904Z,57.90
2018-07-19T21:14:54.691Z,57.10
2018-07-19T21:17:22.552Z,57.50
2018-07-19T21:19:50.387Z,56.40
2018-07-19T21:22:18.219Z,58.90
2018-07-19T21:24:46.107Z,58.20
2018-07-19T21:27:13.899Z,59.90
2018-07-19T21:29:41.944Z,59.50
2018-07-19T21:32:09.732Z,59.20
2018-07-19T21:34:37.471Z,58.50
2018-07-19T21:37:05.497Z,58.90
2018-07-19T21:39:33.292Z,58.50
2018-07-19T21:42:01.079Z,59.60
2018-07-19T21:44:28.938Z,59.00
2018-07-19T21:46:56.682Z,60.20
2018-07-19T21:49:24.571Z,60.00
2018-07-19T21:51:52.394Z,60.50
2018-07-19T21:56:48.008Z,61.20
2018-07-19T21:59:16.198Z,60.10
2018-07-19T22:06:42.127Z,61.30
2018-07-19T22:09:11.560Z,60.80
2018-07-19T22:11:39.771Z,61.10
2018-07-19T22:14:07.898Z,61.50
2018-07-19T22:16:43.160Z,60.10
2018-07-19T22:19:11.107Z,60.50
2018-07-19T22:21:38.855Z,60.70
2018-07-19T22:24:06.697Z,62.10
2018-07-19T22:26:36.181Z,63.00
2018-07-19T22:29:04.415Z,62.30
2018-07-19T22:31:32.335Z,62.60
2018-07-19T22:34:00.155Z,60.90
2018-07-19T22:36:28.020Z,63.20
2018-07-19T22:38:55.811Z,63.70
2018-07-19T22:41:23.599Z,62.40
2018-07-19T22:43:51.410Z,62.00
2018-07-19T22:46:19.199Z,61.70
2018-07-19T22:48:47.475Z,62.60
2018-07-19T22:51:15.357Z,62.20
2018-07-19T22:53:43.208Z,64.00
2018-07-19T22:58:39.360Z,66.20
2018-07-19T23:01:07.634Z,66.50
2018-07-19T23:03:35.615Z,65.30
2018-07-19T23:06:03.508Z,64.70
2018-07-19T23:08:31.274Z,63.60
2018-07-19T23:10:59.164Z,62.60
2018-07-19T23:13:26.914Z,64.20
2018-07-19T23:15:54.928Z,59.80
2018-07-19T23:18:22.771Z,62.20
2018-07-19T23:20:50.569Z,66.30
2018-07-19T23:23:18.332Z,66.10
2018-07-19T23:25:46.385Z,65.10
2018-07-19T23:28:14.283Z,64.50
2018-07-19T23:30:42.071Z,66.20
2018-07-19T23:33:09.924Z,65.60
2018-07-19T23:35:43.777Z,65.70
2018-07-19T23:40:45.809Z,67.20
2018-07-19T23:43:19.533Z,67.20
2018-07-19T23:45:53.315Z,67.60
2018-07-19T23:48:21.383Z,67.90
2018-07-19T23:50:49.187Z,68.90
2018-07-19T23:53:17.186Z,68.50
2018-07-19T23:55:44.931Z,68.10
2018-07-19T23:58:12.787Z,69.50
